sensor_id;sensor_type;location;lat;lon;timestamp;temperature;humidity
36654;DHT22;22650;49.350;20.898;2023-07-29T00:02:01;15.40;99.90
36654;DHT22;22650;49.350;20.898;2023-07-29T00:04:35;15.40;99.90
36654;DHT22;22650;49.350;20.898;2023-07-29T00:07:08;15.40;99.90
36654;DHT22;22650;49.350;20.898;2023-07-29T00:09:42;15.40;99.90
36654;DHT22;22650;49.350;20.898;2023-07-29T00:12:16;15.40;99.90
36654;DHT22;22650;49.350;20.898;2023-07-29T00:14:50;15.40;99.90
36654;DHT22;22650;49.350;20.898;2023-07-29T00:17:24;15.30;99.90
36654;DHT22;22650;49.350;20.898;2023-07-29T00:19:58;15.30;99.90
36654;DHT22;22650;49.350;20.898;2023-07-29T00:22:31;15.30;99.90
36654;DHT22;22650;49.350;20.898;2023-07-29T00:25:06;15.30;99.90
36654;DHT22;22650;49.350;20.898;2023-07-29T00:27:39;15.30;99.90
36654;DHT22;22650;49.350;20.898;2023-07-29T00:30:14;15.30;99.90
36654;DHT22;22650;49.350;20.898;2023-07-29T00:32:48;15.30;99.90
36654;DHT22;22650;49.350;20.898;2023-07-29T00:35:22;15.20;99.90
36654;DHT22;22650;49.350;20.898;2023-07-29T00:37:55;15.20;99.90
36654;DHT22;22650;49.350;20.898;2023-07-29T00:40:29;15.20;99.90
36654;DHT22;22650;49.350;20.898;2023-07-29T00:43:04;15.20;99.90
36654;DHT22;22650;49.350;20.898;2023-07-29T00:45:43;15.20;99.90
36654;DHT22;22650;49.350;20.898;2023-07-29T00:48:19;15.20;99.90
36654;DHT22;22650;49.350;20.898;2023-07-29T00:50:54;15.20;99.90
36654;DHT22;22650;49.350;20.898;2023-07-29T00:53:28;15.20;99.90
36654;DHT22;22650;49.350;20.898;2023-07-29T00:56:02;15.20;99.90
36654;DHT22;22650;49.350;20.898;2023-07-29T00:58:35;15.10;99.90
36654;DHT22;22650;49.350;20.898;2023-07-29T01:01:10;15.10;99.90
36654;DHT22;22650;49.350;20.898;2023-07-29T01:03:45;15.10;99.90
36654;DHT22;22650;49.350;20.898;2023-07-29T01:06:26;15.10;99.90
36654;DHT22;22650;49.350;20.898;2023-07-29T01:09:04;15.10;99.90
36654;DHT22;22650;49.350;20.898;2023-07-29T01:11:45;15.10;99.90
36654;DHT22;22650;49.350;20.898;2023-07-29T01:14:29;15.00;99.90
36654;DHT22;22650;49.350;20.898;2023-07-29T01:17:12;15.00;99.90
36654;DHT22;22650;49.350;20.898;2023-07-29T01:19:55;15.00;99.90
36654;DHT22;22650;49.350;20.898;2023-07-29T01:22:34;15.00;99.90
36654;DHT22;22650;49.350;20.898;2023-07-29T01:25:09;15.00;99.90
36654;DHT22;22650;49.350;20.898;2023-07-29T01:27:45;15.00;99.90
36654;DHT22;22650;49.350;20.898;2023-07-29T01:30:20;15.00;99.90
36654;DHT22;22650;49.350;20.898;2023-07-29T01:33:00;15.00;99.90
36654;DHT22;22650;49.350;20.898;2023-07-29T01:35:42;15.00;99.90
36654;DHT22;22650;49.350;20.898;2023-07-29T01:38:19;15.00;99.90
36654;DHT22;22650;49.350;20.898;2023-07-29T01:40:56;14.90;99.90
36654;DHT22;22650;49.350;20.898;2023-07-29T01:43:31;14.90;99.90
36654;DHT22;22650;49.350;20.898;2023-07-29T01:46:05;14.90;99.90
36654;DHT22;22650;49.350;20.898;2023-07-29T01:48:39;14.90;99.90
36654;DHT22;22650;49.350;20.898;2023-07-29T01:51:13;14.90;99.90
36654;DHT22;22650;49.350;20.898;2023-07-29T01:53:47;14.90;99.90
36654;DHT22;22650;49.350;20.898;2023-07-29T01:56:22;14.90;99.90
36654;DHT22;22650;49.350;20.898;2023-07-29T01:58:59;14.90;99.90
36654;DHT22;22650;49.350;20.898;2023-07-29T02:01:33;14.90;99.90
36654;DHT22;22650;49.350;20.898;2023-07-29T02:04:07;14.90;99.90
36654;DHT22;22650;49.350;20.898;2023-07-29T02:06:41;14.80;99.90
36654;DHT22;22650;49.350;20.898;2023-07-29T02:09:14;14.80;99.90
36654;DHT22;22650;49.350;20.898;2023-07-29T02:11:49;14.80;99.90
36654;DHT22;22650;49.350;20.898;2023-07-29T02:14:23;14.80;99.90
36654;DHT22;22650;49.350;20.898;2023-07-29T02:16:57;14.80;99.90
36654;DHT22;22650;49.350;20.898;2023-07-29T02:19:31;14.80;99.90
36654;DHT22;22650;49.350;20.898;2023-07-29T02:22:04;14.80;99.90
36654;DHT22;22650;49.350;20.898;2023-07-29T02:24:38;14.80;99.90
36654;DHT22;22650;49.350;20.898;2023-07-29T02:27:13;14.80;99.90
36654;DHT22;22650;49.350;20.898;2023-07-29T02:29:47;14.80;99.90
36654;DHT22;22650;49.350;20.898;2023-07-29T02:32:21;14.70;99.90
36654;DHT22;22650;49.350;20.898;2023-07-29T02:34:55;14.70;99.90
36654;DHT22;22650;49.350;20.898;2023-07-29T02:37:28;14.70;99.90
36654;DHT22;22650;49.350;20.898;2023-07-29T02:40:02;14.60;99.90
36654;DHT22;22650;49.350;20.898;2023-07-29T02:42:37;14.60;99.90
36654;DHT22;22650;49.350;20.898;2023-07-29T02:45:11;14.60;99.90
36654;DHT22;22650;49.350;20.898;2023-07-29T02:47:44;14.60;99.90
36654;DHT22;22650;49.350;20.898;2023-07-29T02:50:19;14.50;99.90
36654;DHT22;22650;49.350;20.898;2023-07-29T02:52:52;14.50;99.90
36654;DHT22;22650;49.350;20.898;2023-07-29T02:55:26;14.50;99.90
36654;DHT22;22650;49.350;20.898;2023-07-29T02:58:01;14.50;99.90
36654;DHT22;22650;49.350;20.898;2023-07-29T03:00:35;14.40;99.90
36654;DHT22;22650;49.350;20.898;2023-07-29T03:03:09;14.40;99.90
36654;DHT22;22650;49.350;20.898;2023-07-29T03:05:43;14.40;99.90
36654;DHT22;22650;49.350;20.898;2023-07-29T03:08:16;14.40;99.90
36654;DHT22;22650;49.350;20.898;2023-07-29T03:10:50;14.40;99.90
36654;DHT22;22650;49.350;20.898;2023-07-29T03:13:25;14.30;99.90
36654;DHT22;22650;49.350;20.898;2023-07-29T03:16:05;14.30;99.90
36654;DHT22;22650;49.350;20.898;2023-07-29T03:18:39;14.30;99.90
36654;DHT22;22650;49.350;20.898;2023-07-29T03:21:12;14.30;99.90
36654;DHT22;22650;49.350;20.898;2023-07-29T03:23:46;14.30;99.90
36654;DHT22;22650;49.350;20.898;2023-07-29T03:26:19;14.40;99.90
36654;DHT22;22650;49.350;20.898;2023-07-29T03:28:54;14.40;99.90
36654;DHT22;22650;49.350;20.898;2023-07-29T03:31:28;14.40;99.90
36654;DHT22;22650;49.350;20.898;2023-07-29T03:34:02;14.40;99.90
36654;DHT22;22650;49.350;20.898;2023-07-29T03:36:36;14.40;99.90
36654;DHT22;22650;49.350;20.898;2023-07-29T03:39:10;14.40;99.90
36654;DHT22;22650;49.350;20.898;2023-07-29T03:41:44;14.40;99.90
36654;DHT22;22650;49.350;20.898;2023-07-29T03:44:19;14.40;99.90
36654;DHT22;22650;49.350;20.898;2023-07-29T03:46:53;14.40;99.90
36654;DHT22;22650;49.350;20.898;2023-07-29T03:49:26;14.40;99.90
36654;DHT22;22650;49.350;20.898;2023-07-29T03:52:00;14.40;99.90
36654;DHT22;22650;49.350;20.898;2023-07-29T03:54:35;14.40;99.90
36654;DHT22;22650;49.350;20.898;2023-07-29T03:57:08;14.40;99.90
36654;DHT22;22650;49.350;20.898;2023-07-29T03:59:43;14.40;99.90
36654;DHT22;22650;49.350;20.898;2023-07-29T04:02:17;14.40;99.90
36654;DHT22;22650;49.350;20.898;2023-07-29T04:04:52;14.40;99.90
36654;DHT22;22650;49.350;20.898;2023-07-29T04:07:26;14.50;99.90
36654;DHT22;22650;49.350;20.898;2023-07-29T04:10:00;14.50;99.90
36654;DHT22;22650;49.350;20.898;2023-07-29T04:12:34;14.50;99.90
36654;DHT22;22650;49.350;20.898;2023-07-29T04:15:10;14.50;99.90
36654;DHT22;22650;49.350;20.898;2023-07-29T04:17:44;14.60;99.90
36654;DHT22;22650;49.350;20.898;2023-07-29T04:20:17;14.60;99.90
36654;DHT22;22650;49.350;20.898;2023-07-29T04:22:51;14.60;99.90
36654;DHT22;22650;49.350;20.898;2023-07-29T04:25:24;14.60;99.90
36654;DHT22;22650;49.350;20.898;2023-07-29T04:27:58;14.60;99.90
36654;DHT22;22650;49.350;20.898;2023-07-29T04:30:34;14.70;99.90
36654;DHT22;22650;49.350;20.898;2023-07-29T04:33:07;14.70;99.90
36654;DHT22;22650;49.350;20.898;2023-07-29T04:35:42;14.70;99.90
36654;DHT22;22650;49.350;20.898;2023-07-29T04:38:16;14.80;99.90
36654;DHT22;22650;49.350;20.898;2023-07-29T04:40:50;14.80;99.90
36654;DHT22;22650;49.350;20.898;2023-07-29T04:43:26;14.90;99.90
36654;DHT22;22650;49.350;20.898;2023-07-29T04:46:02;14.90;99.90
36654;DHT22;22650;49.350;20.898;2023-07-29T04:48:35;14.90;99.90
36654;DHT22;22650;49.350;20.898;2023-07-29T04:51:09;15.00;99.90
36654;DHT22;22650;49.350;20.898;2023-07-29T04:53:45;15.00;99.90
36654;DHT22;22650;49.350;20.898;2023-07-29T04:56:19;15.00;99.90
36654;DHT22;22650;49.350;20.898;2023-07-29T04:58:53;15.00;99.90
36654;DHT22;22650;49.350;20.898;2023-07-29T05:01:28;15.10;99.90
36654;DHT22;22650;49.350;20.898;2023-07-29T05:04:01;15.10;99.90
36654;DHT22;22650;49.350;20.898;2023-07-29T05:06:35;15.10;99.90
36654;DHT22;22650;49.350;20.898;2023-07-29T05:09:13;15.10;99.90
36654;DHT22;22650;49.350;20.898;2023-07-29T05:11:48;15.10;99.90
36654;DHT22;22650;49.350;20.898;2023-07-29T05:14:22;15.20;99.90
36654;DHT22;22650;49.350;20.898;2023-07-29T05:16:57;15.20;99.90
36654;DHT22;22650;49.350;20.898;2023-07-29T05:19:30;15.20;99.90
36654;DHT22;22650;49.350;20.898;2023-07-29T05:22:04;15.20;99.90
36654;DHT22;22650;49.350;20.898;2023-07-29T05:24:38;15.30;99.90
36654;DHT22;22650;49.350;20.898;2023-07-29T05:27:12;15.30;99.90
36654;DHT22;22650;49.350;20.898;2023-07-29T05:29:45;15.30;99.90
36654;DHT22;22650;49.350;20.898;2023-07-29T05:32:20;15.30;99.90
36654;DHT22;22650;49.350;20.898;2023-07-29T05:34:54;15.40;99.90
36654;DHT22;22650;49.350;20.898;2023-07-29T05:37:28;15.40;99.90
36654;DHT22;22650;49.350;20.898;2023-07-29T05:40:02;15.40;99.90
36654;DHT22;22650;49.350;20.898;2023-07-29T05:42:36;15.50;99.90
36654;DHT22;22650;49.350;20.898;2023-07-29T05:45:10;15.50;99.90
36654;DHT22;22650;49.350;20.898;2023-07-29T05:47:45;15.50;99.90
36654;DHT22;22650;49.350;20.898;2023-07-29T05:50:19;15.50;99.90
36654;DHT22;22650;49.350;20.898;2023-07-29T05:52:53;15.60;99.90
36654;DHT22;22650;49.350;20.898;2023-07-29T05:55:27;15.60;99.90
36654;DHT22;22650;49.350;20.898;2023-07-29T05:58:01;15.60;99.90
36654;DHT22;22650;49.350;20.898;2023-07-29T06:00:35;15.70;99.90
36654;DHT22;22650;49.350;20.898;2023-07-29T06:03:10;15.70;99.90
36654;DHT22;22650;49.350;20.898;2023-07-29T06:05:43;15.80;99.90
36654;DHT22;22650;49.350;20.898;2023-07-29T06:08:17;15.90;99.90
36654;DHT22;22650;49.350;20.898;2023-07-29T06:10:51;16.00;99.90
36654;DHT22;22650;49.350;20.898;2023-07-29T06:13:24;16.10;99.90
36654;DHT22;22650;49.350;20.898;2023-07-29T06:15:59;16.10;99.90
36654;DHT22;22650;49.350;20.898;2023-07-29T06:18:34;16.20;99.90
36654;DHT22;22650;49.350;20.898;2023-07-29T06:21:08;16.30;99.90
36654;DHT22;22650;49.350;20.898;2023-07-29T06:23:44;16.30;99.90
36654;DHT22;22650;49.350;20.898;2023-07-29T06:26:18;16.40;99.90
36654;DHT22;22650;49.350;20.898;2023-07-29T06:28:52;16.50;99.90
36654;DHT22;22650;49.350;20.898;2023-07-29T06:31:25;16.60;99.90
36654;DHT22;22650;49.350;20.898;2023-07-29T06:34:00;16.70;99.90
36654;DHT22;22650;49.350;20.898;2023-07-29T06:36:34;16.70;99.90
36654;DHT22;22650;49.350;20.898;2023-07-29T06:39:08;16.80;99.90
36654;DHT22;22650;49.350;20.898;2023-07-29T06:41:42;16.90;99.90
36654;DHT22;22650;49.350;20.898;2023-07-29T06:44:17;16.90;99.90
36654;DHT22;22650;49.350;20.898;2023-07-29T06:46:51;17.00;99.90
36654;DHT22;22650;49.350;20.898;2023-07-29T06:49:26;17.10;99.90
36654;DHT22;22650;49.350;20.898;2023-07-29T06:52:00;17.20;99.90
36654;DHT22;22650;49.350;20.898;2023-07-29T06:54:34;17.30;99.90
36654;DHT22;22650;49.350;20.898;2023-07-29T06:57:08;17.40;99.90
36654;DHT22;22650;49.350;20.898;2023-07-29T06:59:41;17.50;99.90
36654;DHT22;22650;49.350;20.898;2023-07-29T07:02:15;17.60;99.90
36654;DHT22;22650;49.350;20.898;2023-07-29T07:04:50;17.80;99.90
36654;DHT22;22650;49.350;20.898;2023-07-29T07:07:24;17.90;99.90
36654;DHT22;22650;49.350;20.898;2023-07-29T07:09:57;18.10;99.90
36654;DHT22;22650;49.350;20.898;2023-07-29T07:12:33;18.20;99.90
36654;DHT22;22650;49.350;20.898;2023-07-29T07:15:07;18.40;99.90
36654;DHT22;22650;49.350;20.898;2023-07-29T07:17:41;18.50;99.90
36654;DHT22;22650;49.350;20.898;2023-07-29T07:20:17;18.70;99.90
36654;DHT22;22650;49.350;20.898;2023-07-29T07:22:51;18.80;99.90
36654;DHT22;22650;49.350;20.898;2023-07-29T07:25:24;19.00;99.90
36654;DHT22;22650;49.350;20.898;2023-07-29T07:27:58;19.20;99.90
36654;DHT22;22650;49.350;20.898;2023-07-29T07:30:32;19.30;99.90
36654;DHT22;22650;49.350;20.898;2023-07-29T07:33:05;19.50;99.90
36654;DHT22;22650;49.350;20.898;2023-07-29T07:35:41;19.70;99.90
36654;DHT22;22650;49.350;20.898;2023-07-29T07:38:15;19.90;99.90
36654;DHT22;22650;49.350;20.898;2023-07-29T07:40:53;20.10;99.90
36654;DHT22;22650;49.350;20.898;2023-07-29T07:43:28;20.30;99.90
36654;DHT22;22650;49.350;20.898;2023-07-29T07:46:02;20.50;99.90
36654;DHT22;22650;49.350;20.898;2023-07-29T07:48:37;20.70;99.90
36654;DHT22;22650;49.350;20.898;2023-07-29T07:51:13;20.90;99.90
36654;DHT22;22650;49.350;20.898;2023-07-29T07:53:47;21.00;99.90
36654;DHT22;22650;49.350;20.898;2023-07-29T07:56:20;21.20;99.90
36654;DHT22;22650;49.350;20.898;2023-07-29T07:58:54;21.40;99.90
36654;DHT22;22650;49.350;20.898;2023-07-29T08:01:28;21.60;99.90
36654;DHT22;22650;49.350;20.898;2023-07-29T08:04:07;21.80;99.90
36654;DHT22;22650;49.350;20.898;2023-07-29T08:06:42;22.10;99.90
36654;DHT22;22650;49.350;20.898;2023-07-29T08:09:16;22.40;99.90
36654;DHT22;22650;49.350;20.898;2023-07-29T08:11:49;22.60;99.90
36654;DHT22;22650;49.350;20.898;2023-07-29T08:14:23;22.80;99.90
36654;DHT22;22650;49.350;20.898;2023-07-29T08:16:56;23.00;99.90
36654;DHT22;22650;49.350;20.898;2023-07-29T08:19:30;23.20;99.90
36654;DHT22;22650;49.350;20.898;2023-07-29T08:22:05;23.40;99.90
36654;DHT22;22650;49.350;20.898;2023-07-29T08:24:39;23.70;99.90
36654;DHT22;22650;49.350;20.898;2023-07-29T08:27:13;23.90;99.90
36654;DHT22;22650;49.350;20.898;2023-07-29T08:29:47;24.10;99.90
36654;DHT22;22650;49.350;20.898;2023-07-29T08:32:20;24.30;99.90
36654;DHT22;22650;49.350;20.898;2023-07-29T08:34:54;24.40;99.90
36654;DHT22;22650;49.350;20.898;2023-07-29T08:37:30;24.60;99.90
36654;DHT22;22650;49.350;20.898;2023-07-29T08:40:05;24.80;99.90
36654;DHT22;22650;49.350;20.898;2023-07-29T08:42:39;25.00;99.90
36654;DHT22;22650;49.350;20.898;2023-07-29T08:45:17;25.20;99.90
36654;DHT22;22650;49.350;20.898;2023-07-29T08:47:55;25.50;99.90
36654;DHT22;22650;49.350;20.898;2023-07-29T08:50:32;25.70;99.90
36654;DHT22;22650;49.350;20.898;2023-07-29T08:53:08;26.00;99.90
36654;DHT22;22650;49.350;20.898;2023-07-29T08:55:42;26.20;99.90
36654;DHT22;22650;49.350;20.898;2023-07-29T08:58:16;26.40;99.90
36654;DHT22;22650;49.350;20.898;2023-07-29T09:00:50;26.60;99.90
36654;DHT22;22650;49.350;20.898;2023-07-29T09:03:24;26.90;99.90
36654;DHT22;22650;49.350;20.898;2023-07-29T09:05:59;27.20;99.90
36654;DHT22;22650;49.350;20.898;2023-07-29T09:08:34;27.40;99.90
36654;DHT22;22650;49.350;20.898;2023-07-29T09:11:09;27.60;99.90
36654;DHT22;22650;49.350;20.898;2023-07-29T09:13:44;27.70;99.90
36654;DHT22;22650;49.350;20.898;2023-07-29T09:16:18;27.90;99.90
36654;DHT22;22650;49.350;20.898;2023-07-29T09:18:53;28.10;99.90
36654;DHT22;22650;49.350;20.898;2023-07-29T09:21:27;28.30;98.80
36654;DHT22;22650;49.350;20.898;2023-07-29T09:24:04;28.40;98.10
36654;DHT22;22650;49.350;20.898;2023-07-29T09:26:49;28.50;96.60
36654;DHT22;22650;49.350;20.898;2023-07-29T09:29:23;28.70;98.30
36654;DHT22;22650;49.350;20.898;2023-07-29T09:32:21;28.90;94.60
36654;DHT22;22650;49.350;20.898;2023-07-29T09:34:55;29.30;93.80
36654;DHT22;22650;49.350;20.898;2023-07-29T09:37:28;29.60;91.50
36654;DHT22;22650;49.350;20.898;2023-07-29T09:40:06;29.60;90.90
36654;DHT22;22650;49.350;20.898;2023-07-29T09:42:40;29.90;91.30
36654;DHT22;22650;49.350;20.898;2023-07-29T09:45:19;30.00;91.40
36654;DHT22;22650;49.350;20.898;2023-07-29T09:47:53;29.90;83.40
36654;DHT22;22650;49.350;20.898;2023-07-29T09:50:28;29.90;87.30
36654;DHT22;22650;49.350;20.898;2023-07-29T09:53:02;29.70;85.50
36654;DHT22;22650;49.350;20.898;2023-07-29T09:55:37;29.50;86.90
36654;DHT22;22650;49.350;20.898;2023-07-29T09:58:11;29.40;87.00
36654;DHT22;22650;49.350;20.898;2023-07-29T10:00:45;29.20;87.70
36654;DHT22;22650;49.350;20.898;2023-07-29T10:03:21;29.10;89.00
36654;DHT22;22650;49.350;20.898;2023-07-29T10:05:55;28.90;89.60
36654;DHT22;22650;49.350;20.898;2023-07-29T10:08:29;28.80;90.60
36654;DHT22;22650;49.350;20.898;2023-07-29T10:11:07;28.70;91.10
36654;DHT22;22650;49.350;20.898;2023-07-29T10:13:41;28.60;92.70
36654;DHT22;22650;49.350;20.898;2023-07-29T10:16:21;28.60;93.00
36654;DHT22;22650;49.350;20.898;2023-07-29T10:18:57;28.50;92.50
36654;DHT22;22650;49.350;20.898;2023-07-29T10:21:31;28.50;92.90
36654;DHT22;22650;49.350;20.898;2023-07-29T10:24:07;28.40;93.70
36654;DHT22;22650;49.350;20.898;2023-07-29T10:26:46;28.30;94.10
36654;DHT22;22650;49.350;20.898;2023-07-29T10:29:20;28.30;93.20
36654;DHT22;22650;49.350;20.898;2023-07-29T10:31:57;28.10;94.50
36654;DHT22;22650;49.350;20.898;2023-07-29T10:34:33;28.00;95.50
36654;DHT22;22650;49.350;20.898;2023-07-29T10:37:08;27.80;95.10
36654;DHT22;22650;49.350;20.898;2023-07-29T10:39:52;27.80;99.20
36654;DHT22;22650;49.350;20.898;2023-07-29T10:42:27;27.70;99.90
36654;DHT22;22650;49.350;20.898;2023-07-29T10:45:17;27.50;99.90
36654;DHT22;22650;49.350;20.898;2023-07-29T10:47:51;27.40;99.90
36654;DHT22;22650;49.350;20.898;2023-07-29T10:50:25;27.30;99.90
36654;DHT22;22650;49.350;20.898;2023-07-29T10:53:00;27.20;99.90
36654;DHT22;22650;49.350;20.898;2023-07-29T10:55:35;27.10;99.90
36654;DHT22;22650;49.350;20.898;2023-07-29T10:58:14;27.00;99.90
36654;DHT22;22650;49.350;20.898;2023-07-29T11:00:49;26.90;99.90
36654;DHT22;22650;49.350;20.898;2023-07-29T11:03:23;26.80;99.90
36654;DHT22;22650;49.350;20.898;2023-07-29T11:06:04;26.60;99.90
36654;DHT22;22650;49.350;20.898;2023-07-29T11:08:38;26.40;99.90
36654;DHT22;22650;49.350;20.898;2023-07-29T11:11:12;26.10;99.90
36654;DHT22;22650;49.350;20.898;2023-07-29T11:13:47;25.80;99.90
36654;DHT22;22650;49.350;20.898;2023-07-29T11:16:21;25.50;99.90
36654;DHT22;22650;49.350;20.898;2023-07-29T11:18:56;25.30;99.90
36654;DHT22;22650;49.350;20.898;2023-07-29T11:21:33;25.10;99.90
36654;DHT22;22650;49.350;20.898;2023-07-29T11:24:09;24.90;99.90
36654;DHT22;22650;49.350;20.898;2023-07-29T11:26:46;24.70;99.90
36654;DHT22;22650;49.350;20.898;2023-07-29T11:29:22;24.50;99.90
36654;DHT22;22650;49.350;20.898;2023-07-29T11:31:56;24.40;99.90
36654;DHT22;22650;49.350;20.898;2023-07-29T11:34:31;24.20;99.90
36654;DHT22;22650;49.350;20.898;2023-07-29T11:37:05;24.10;99.90
36654;DHT22;22650;49.350;20.898;2023-07-29T11:39:40;23.90;99.90
36654;DHT22;22650;49.350;20.898;2023-07-29T11:42:14;23.60;99.90
36654;DHT22;22650;49.350;20.898;2023-07-29T11:44:50;23.50;99.90
36654;DHT22;22650;49.350;20.898;2023-07-29T11:47:23;23.40;99.90
36654;DHT22;22650;49.350;20.898;2023-07-29T11:49:58;23.30;99.90
36654;DHT22;22650;49.350;20.898;2023-07-29T11:52:33;23.20;99.90
36654;DHT22;22650;49.350;20.898;2023-07-29T11:55:08;23.10;99.90
36654;DHT22;22650;49.350;20.898;2023-07-29T11:57:43;23.00;99.90
36654;DHT22;22650;49.350;20.898;2023-07-29T12:00:18;22.90;99.90
36654;DHT22;22650;49.350;20.898;2023-07-29T12:02:52;22.80;99.90
36654;DHT22;22650;49.350;20.898;2023-07-29T12:05:26;22.80;99.90
36654;DHT22;22650;49.350;20.898;2023-07-29T12:07:59;22.70;99.90
36654;DHT22;22650;49.350;20.898;2023-07-29T12:10:34;22.70;99.90
36654;DHT22;22650;49.350;20.898;2023-07-29T12:13:08;22.70;99.90
36654;DHT22;22650;49.350;20.898;2023-07-29T12:15:43;22.70;99.90
36654;DHT22;22650;49.350;20.898;2023-07-29T12:18:17;22.80;99.90
36654;DHT22;22650;49.350;20.898;2023-07-29T12:20:51;22.80;99.90
36654;DHT22;22650;49.350;20.898;2023-07-29T12:23:25;22.90;99.90
36654;DHT22;22650;49.350;20.898;2023-07-29T12:25:59;22.90;99.90
36654;DHT22;22650;49.350;20.898;2023-07-29T12:28:33;23.00;99.90
36654;DHT22;22650;49.350;20.898;2023-07-29T12:31:08;23.10;99.90
36654;DHT22;22650;49.350;20.898;2023-07-29T12:33:42;23.30;99.90
36654;DHT22;22650;49.350;20.898;2023-07-29T12:36:17;23.40;99.90
36654;DHT22;22650;49.350;20.898;2023-07-29T12:38:51;23.50;99.90
36654;DHT22;22650;49.350;20.898;2023-07-29T12:41:24;23.70;99.90
36654;DHT22;22650;49.350;20.898;2023-07-29T12:43:59;23.70;99.90
36654;DHT22;22650;49.350;20.898;2023-07-29T12:46:34;23.80;99.90
36654;DHT22;22650;49.350;20.898;2023-07-29T12:49:09;23.80;99.90
36654;DHT22;22650;49.350;20.898;2023-07-29T12:51:42;23.90;99.90
36654;DHT22;22650;49.350;20.898;2023-07-29T12:54:16;24.00;99.90
36654;DHT22;22650;49.350;20.898;2023-07-29T12:56:50;24.00;99.90
36654;DHT22;22650;49.350;20.898;2023-07-29T12:59:23;24.00;99.90
36654;DHT22;22650;49.350;20.898;2023-07-29T13:01:58;24.00;99.90
36654;DHT22;22650;49.350;20.898;2023-07-29T13:04:32;24.00;99.90
36654;DHT22;22650;49.350;20.898;2023-07-29T13:07:06;24.00;99.90
36654;DHT22;22650;49.350;20.898;2023-07-29T13:09:40;24.10;99.90
36654;DHT22;22650;49.350;20.898;2023-07-29T13:12:14;24.00;99.90
36654;DHT22;22650;49.350;20.898;2023-07-29T13:14:48;24.00;99.90
36654;DHT22;22650;49.350;20.898;2023-07-29T13:17:23;24.00;99.90
36654;DHT22;22650;49.350;20.898;2023-07-29T13:19:56;23.90;99.90
36654;DHT22;22650;49.350;20.898;2023-07-29T13:22:32;23.90;99.90
36654;DHT22;22650;49.350;20.898;2023-07-29T13:25:09;23.80;99.90
36654;DHT22;22650;49.350;20.898;2023-07-29T13:27:43;23.70;99.90
36654;DHT22;22650;49.350;20.898;2023-07-29T13:30:16;23.60;99.90
36654;DHT22;22650;49.350;20.898;2023-07-29T13:32:52;23.50;99.90
36654;DHT22;22650;49.350;20.898;2023-07-29T13:35:31;23.40;99.90
36654;DHT22;22650;49.350;20.898;2023-07-29T13:38:04;23.30;99.90
36654;DHT22;22650;49.350;20.898;2023-07-29T13:40:41;23.10;99.90
36654;DHT22;22650;49.350;20.898;2023-07-29T13:43:18;23.00;99.90
36654;DHT22;22650;49.350;20.898;2023-07-29T13:45:51;22.80;99.90
36654;DHT22;22650;49.350;20.898;2023-07-29T13:48:26;22.60;99.90
36654;DHT22;22650;49.350;20.898;2023-07-29T13:51:00;22.60;99.90
36654;DHT22;22650;49.350;20.898;2023-07-29T13:53:34;22.50;99.90
36654;DHT22;22650;49.350;20.898;2023-07-29T13:56:08;22.30;99.90
36654;DHT22;22650;49.350;20.898;2023-07-29T13:58:41;22.30;99.90
36654;DHT22;22650;49.350;20.898;2023-07-29T14:01:15;22.20;99.90
36654;DHT22;22650;49.350;20.898;2023-07-29T14:03:50;22.20;99.90
36654;DHT22;22650;49.350;20.898;2023-07-29T14:06:24;22.10;99.90
36654;DHT22;22650;49.350;20.898;2023-07-29T14:09:16;22.10;99.90
36654;DHT22;22650;49.350;20.898;2023-07-29T14:11:50;22.00;99.90
36654;DHT22;22650;49.350;20.898;2023-07-29T14:14:23;22.00;99.90
36654;DHT22;22650;49.350;20.898;2023-07-29T14:16:57;22.00;99.90
36654;DHT22;22650;49.350;20.898;2023-07-29T14:19:32;21.90;99.90
36654;DHT22;22650;49.350;20.898;2023-07-29T14:22:06;21.90;99.90
36654;DHT22;22650;49.350;20.898;2023-07-29T14:24:40;21.90;99.90
36654;DHT22;22650;49.350;20.898;2023-07-29T14:27:14;21.90;99.90
36654;DHT22;22650;49.350;20.898;2023-07-29T14:29:48;21.90;99.90
36654;DHT22;22650;49.350;20.898;2023-07-29T14:32:22;21.90;99.90
36654;DHT22;22650;49.350;20.898;2023-07-29T14:34:58;21.90;99.90
36654;DHT22;22650;49.350;20.898;2023-07-29T14:37:32;21.90;99.90
36654;DHT22;22650;49.350;20.898;2023-07-29T14:40:07;22.00;99.90
36654;DHT22;22650;49.350;20.898;2023-07-29T14:42:40;22.00;99.90
36654;DHT22;22650;49.350;20.898;2023-07-29T14:45:14;22.10;99.90
36654;DHT22;22650;49.350;20.898;2023-07-29T14:47:48;22.10;99.90
36654;DHT22;22650;49.350;20.898;2023-07-29T14:50:23;22.20;99.90
36654;DHT22;22650;49.350;20.898;2023-07-29T14:52:57;22.30;99.90
36654;DHT22;22650;49.350;20.898;2023-07-29T14:55:30;22.40;99.90
36654;DHT22;22650;49.350;20.898;2023-07-29T14:58:04;22.50;99.90
36654;DHT22;22650;49.350;20.898;2023-07-29T15:00:38;22.50;99.90
36654;DHT22;22650;49.350;20.898;2023-07-29T15:03:16;22.60;99.90
36654;DHT22;22650;49.350;20.898;2023-07-29T15:05:51;22.60;99.90
36654;DHT22;22650;49.350;20.898;2023-07-29T15:08:25;22.70;99.90
36654;DHT22;22650;49.350;20.898;2023-07-29T15:10:58;22.80;99.90
36654;DHT22;22650;49.350;20.898;2023-07-29T15:13:32;22.90;99.90
36654;DHT22;22650;49.350;20.898;2023-07-29T15:16:06;23.00;99.90
36654;DHT22;22650;49.350;20.898;2023-07-29T15:18:39;23.00;99.90
36654;DHT22;22650;49.350;20.898;2023-07-29T15:21:14;23.00;99.90
36654;DHT22;22650;49.350;20.898;2023-07-29T15:23:48;23.10;99.90
36654;DHT22;22650;49.350;20.898;2023-07-29T15:26:22;23.10;99.90
36654;DHT22;22650;49.350;20.898;2023-07-29T15:28:57;23.10;99.90
36654;DHT22;22650;49.350;20.898;2023-07-29T15:31:31;23.20;99.90
36654;DHT22;22650;49.350;20.898;2023-07-29T15:34:05;23.20;99.90
36654;DHT22;22650;49.350;20.898;2023-07-29T15:36:40;23.20;99.90
36654;DHT22;22650;49.350;20.898;2023-07-29T15:39:14;23.20;99.90
36654;DHT22;22650;49.350;20.898;2023-07-29T15:41:47;23.20;99.90
36654;DHT22;22650;49.350;20.898;2023-07-29T15:44:21;23.20;99.90
36654;DHT22;22650;49.350;20.898;2023-07-29T15:46:55;23.20;99.90
36654;DHT22;22650;49.350;20.898;2023-07-29T15:49:29;23.20;99.90
36654;DHT22;22650;49.350;20.898;2023-07-29T15:52:04;23.20;99.90
36654;DHT22;22650;49.350;20.898;2023-07-29T15:54:44;23.30;99.90
36654;DHT22;22650;49.350;20.898;2023-07-29T15:57:17;23.30;99.90
36654;DHT22;22650;49.350;20.898;2023-07-29T15:59:51;23.30;99.90
36654;DHT22;22650;49.350;20.898;2023-07-29T16:02:26;23.30;99.90